createdAt,value
2023-04-30T00:01:54.148Z,1
2023-04-30T00:03:53.647Z,1
2023-04-30T00:05:56.871Z,1
2023-04-30T00:07:57.260Z,1
2023-04-30T00:09:54.438Z,1
2023-04-30T00:11:54.138Z,1
2023-04-30T00:14:00.462Z,1
2023-04-30T00:15:53.681Z,1
2023-04-30T00:17:57.282Z,1
2023-04-30T00:19:57.343Z,1
2023-04-30T00:21:54.239Z,1
2023-04-30T00:23:57.414Z,1
2023-04-30T00:25:53.790Z,1
2023-04-30T00:27:53.810Z,1
2023-04-30T00:29:54.270Z,1
2023-04-30T00:31:57.496Z,1
2023-04-30T00:35:57.406Z,1
2023-04-30T00:37:53.577Z,1
2023-04-30T00:39:57.428Z,1
2023-04-30T00:41:57.271Z,1
2023-04-30T00:43:54.007Z,1
2023-04-30T00:45:54.161Z,1
2023-04-30T00:47:53.763Z,1
2023-04-30T00:49:54.248Z,1
2023-04-30T00:51:53.685Z,1
2023-04-30T00:53:53.698Z,1
2023-04-30T00:55:53.874Z,1
2023-04-30T00:57:53.629Z,1
2023-04-30T00:59:53.746Z,1
2023-04-30T01:01:54.178Z,1
2023-04-30T01:04:00.122Z,1
2023-04-30T01:05:53.809Z,1
2023-04-30T01:07:54.114Z,1
2023-04-30T01:09:53.883Z,1
2023-04-30T01:11:57.538Z,1
2023-04-30T01:13:53.610Z,1
2023-04-30T01:15:53.688Z,1
2023-04-30T01:17:53.670Z,1
2023-04-30T01:19:54.216Z,1
2023-04-30T01:21:53.817Z,1
2023-04-30T01:23:54.210Z,1
2023-04-30T01:25:53.617Z,1
2023-04-30T01:27:54.244Z,1
2023-04-30T01:29:53.816Z,1
2023-04-30T01:31:53.685Z,1
2023-04-30T01:33:54.074Z,1
2023-04-30T01:35:54.260Z,1
2023-04-30T01:37:53.699Z,1
2023-04-30T01:39:53.826Z,1
2023-04-30T01:41:53.647Z,1
2023-04-30T01:43:53.745Z,1
2023-04-30T01:45:54.238Z,1
2023-04-30T01:47:54.252Z,1
2023-04-30T01:49:53.704Z,1
2023-04-30T01:51:53.653Z,1
2023-04-30T01:53:54.125Z,1
2023-04-30T01:55:59.965Z,1
2023-04-30T01:57:57.322Z,1
2023-04-30T01:59:53.783Z,1
2023-04-30T02:01:53.681Z,1
2023-04-30T02:03:53.888Z,1
2023-04-30T02:05:53.714Z,1
2023-04-30T02:07:54.335Z,1
2023-04-30T02:09:53.836Z,1
2023-04-30T02:11:53.760Z,1
2023-04-30T02:13:53.716Z,1
2023-04-30T02:15:53.766Z,1
2023-04-30T02:17:53.748Z,1
2023-04-30T02:19:54.358Z,1
2023-04-30T02:21:53.626Z,1
2023-04-30T02:23:53.756Z,1
2023-04-30T02:25:57.307Z,1
2023-04-30T02:27:54.087Z,1
2023-04-30T02:29:54.025Z,1
2023-04-30T02:31:54.237Z,1
2023-04-30T02:33:57.255Z,1
2023-04-30T02:35:53.671Z,1
2023-04-30T02:37:54.052Z,1
2023-04-30T02:39:54.063Z,1
2023-04-30T02:43:53.799Z,1
2023-04-30T02:45:53.766Z,1
2023-04-30T02:47:57.510Z,1
2023-04-30T02:49:53.983Z,1
2023-04-30T02:52:00.401Z,1
2023-04-30T02:54:00.439Z,1
2023-04-30T02:55:57.104Z,1
2023-04-30T02:57:53.633Z,1
2023-04-30T02:59:53.776Z,1
2023-04-30T03:01:54.118Z,1
2023-04-30T03:03:54.191Z,1
2023-04-30T03:05:53.723Z,1
2023-04-30T03:07:57.335Z,0
2023-04-30T03:09:54.263Z,0
2023-04-30T03:13:53.642Z,0
2023-04-30T03:15:57.446Z,0.1
2023-04-30T03:17:54.155Z,0.1
2023-04-30T03:20:00.563Z,0.2
2023-04-30T03:21:53.673Z,0.3
2023-04-30T03:23:54.116Z,0.3
2023-04-30T03:25:53.720Z,0.4
2023-04-30T03:27:57.473Z,0.6
2023-04-30T03:29:57.308Z,0.8
2023-04-30T03:33:53.853Z,1.4
2023-04-30T03:35:53.801Z,1.9
2023-04-30T03:37:57.343Z,2.7
2023-04-30T03:39:54.530Z,3.5
2023-04-30T03:41:54.823Z,4.7
2023-04-30T03:43:53.741Z,6.4
2023-04-30T03:45:53.638Z,8.6
2023-04-30T03:47:57.382Z,11.6
2023-04-30T03:49:57.346Z,15.6
2023-04-30T03:51:53.926Z,20.1
2023-04-30T03:53:53.672Z,24.5
2023-04-30T03:55:53.634Z,31.5
2023-04-30T03:57:54.180Z,38.5
2023-04-30T03:59:53.885Z,47
2023-04-30T04:01:53.688Z,57.4
2023-04-30T04:03:57.333Z,66.7
2023-04-30T04:05:53.718Z,81.5
2023-04-30T04:07:53.764Z,99.5
2023-04-30T04:09:54.221Z,121.5
2023-04-30T04:11:54.242Z,141.2
2023-04-30T04:13:53.836Z,156
2023-04-30T04:15:57.865Z,172.4
2023-04-30T04:18:00.726Z,190.6
2023-04-30T04:19:53.850Z,210.6
2023-04-30T04:21:54.137Z,232.8
2023-04-30T04:23:53.671Z,257.2
2023-04-30T04:25:53.593Z,284.3
2023-04-30T04:28:00.642Z,298.9
2023-04-30T04:29:53.828Z,314.2
2023-04-30T04:31:54.178Z,347.2
2023-04-30T04:33:57.402Z,365
2023-04-30T04:36:00.524Z,403.4
2023-04-30T04:37:53.708Z,424.1
2023-04-30T04:39:54.336Z,445.9
2023-04-30T04:43:53.643Z,518
2023-04-30T04:45:53.682Z,544.6
2023-04-30T04:48:00.649Z,601.8
2023-04-30T04:49:53.974Z,632.7
2023-04-30T04:51:53.630Z,665.1
2023-04-30T04:53:53.775Z,699.2
2023-04-30T04:55:54.142Z,735.1
2023-04-30T04:57:53.809Z,772.8
2023-04-30T04:59:54.016Z,854.1
2023-04-30T05:01:54.166Z,943.9
2023-04-30T05:03:53.923Z,943.9
2023-04-30T05:05:53.747Z,943.9
2023-04-30T05:08:00.575Z,1096.6
2023-04-30T05:11:53.632Z,1274.1
2023-04-30T05:13:53.842Z,1339.4
2023-04-30T05:15:53.797Z,1408.1
2023-04-30T05:17:57.333Z,1480.3
2023-04-30T05:19:53.846Z,1556.2
2023-04-30T05:23:53.675Z,1808
2023-04-30T05:25:53.630Z,1808
2023-04-30T05:27:53.815Z,1900.7
2023-04-30T05:29:53.795Z,1998.2
2023-04-30T05:31:53.684Z,2100.6
2023-04-30T05:33:53.764Z,2321.6
2023-04-30T05:35:57.452Z,2440.6
2023-04-30T05:37:57.414Z,2440.6
2023-04-30T05:39:53.856Z,2440.6
2023-04-30T05:41:53.799Z,2565.7
2023-04-30T05:43:57.328Z,2697.3
2023-04-30T05:47:54.226Z,2835.6
2023-04-30T05:49:57.276Z,2981
2023-04-30T05:51:57.220Z,3133.8
2023-04-30T05:53:54.142Z,3133.8
2023-04-30T05:55:54.153Z,3294.5
2023-04-30T05:57:53.708Z,3641
2023-04-30T05:59:54.411Z,3827.6
2023-04-30T06:02:00.600Z,3827.6
2023-04-30T06:03:53.790Z,4230.2
2023-04-30T06:05:53.682Z,4230.2
2023-04-30T06:07:57.531Z,4230.2
2023-04-30T06:09:53.810Z,4675.1
2023-04-30T06:12:00.491Z,4675.1
2023-04-30T06:13:54.254Z,4914.8
2023-04-30T06:15:53.677Z,4675.1
2023-04-30T06:17:53.699Z,5431.7
2023-04-30T06:19:57.533Z,6634.2
2023-04-30T06:21:53.724Z,7332
2023-04-30T06:23:54.123Z,7332
2023-04-30T06:25:57.368Z,7707.9
2023-04-30T06:27:53.643Z,8103.1
2023-04-30T06:29:57.436Z,8103.1
2023-04-30T06:31:53.836Z,8103.1
2023-04-30T06:33:53.764Z,8103.1
2023-04-30T06:35:56.848Z,8103.1
2023-04-30T06:37:53.765Z,8103.1
2023-04-30T06:39:57.388Z,8518.5
2023-04-30T06:41:53.894Z,8518.5
2023-04-30T06:43:57.285Z,8955.3
2023-04-30T06:45:53.754Z,9414.4
2023-04-30T06:47:54.335Z,9897.1
2023-04-30T06:50:00.607Z,10404.6
2023-04-30T06:51:57.370Z,7707.9
2023-04-30T06:53:53.746Z,4914.8
2023-04-30T06:55:57.372Z,4675.1
2023-04-30T06:57:54.196Z,4675.1
2023-04-30T06:59:54.279Z,4675.1
2023-04-30T07:01:54.267Z,4675.1
2023-04-30T07:03:57.405Z,4675.1
2023-04-30T07:05:53.955Z,4675.1
2023-04-30T07:07:57.297Z,4675.1
2023-04-30T07:09:54.392Z,4447.1
2023-04-30T07:12:00.620Z,4447.1
2023-04-30T07:13:53.738Z,4447.1
2023-04-30T07:15:53.770Z,4447.1
2023-04-30T07:17:53.755Z,4447.1
2023-04-30T07:19:54.897Z,4447.1
2023-04-30T07:21:54.165Z,4230.2
2023-04-30T07:23:53.992Z,4447.1
2023-04-30T07:26:00.553Z,4447.1
2023-04-30T07:27:54.564Z,4447.1
2023-04-30T07:29:54.476Z,4447.1
2023-04-30T07:31:54.450Z,4447.1
2023-04-30T07:33:53.710Z,4675.1
2023-04-30T07:35:57.418Z,4675.1
2023-04-30T07:37:57.359Z,4675.1
2023-04-30T07:39:57.492Z,4675.1
2023-04-30T07:41:54.298Z,4675.1
2023-04-30T07:43:54.244Z,4914.8
2023-04-30T07:45:53.790Z,4914.8
2023-04-30T07:47:54.078Z,5166.8
2023-04-30T07:51:54.405Z,5166.8
2023-04-30T07:54:00.590Z,5166.8
2023-04-30T07:55:53.809Z,5166.8
2023-04-30T07:57:57.298Z,5166.8
2023-04-30T07:59:53.882Z,5431.7
2023-04-30T08:02:00.791Z,5431.7
2023-04-30T08:03:53.982Z,5431.7
2023-04-30T08:05:53.669Z,5710.1
2023-04-30T08:07:53.804Z,5710.1
2023-04-30T08:09:54.325Z,5710.1
2023-04-30T08:11:54.309Z,6002.9
2023-04-30T08:13:53.814Z,6310.7
2023-04-30T08:17:53.784Z,6310.7
2023-04-30T08:19:53.885Z,6974.4
2023-04-30T08:21:54.272Z,7332
2023-04-30T08:23:53.961Z,7332
2023-04-30T08:25:57.437Z,7332
2023-04-30T08:27:53.831Z,8103.1
2023-04-30T08:31:53.665Z,8955.3
2023-04-30T08:33:57.179Z,7332
2023-04-30T08:35:53.653Z,6310.7
2023-04-30T08:37:54.184Z,6310.7
2023-04-30T08:39:53.847Z,8518.5
2023-04-30T08:41:54.230Z,8103.1
2023-04-30T08:45:54.391Z,6310.7
2023-04-30T08:47:54.228Z,6002.9
2023-04-30T08:50:00.623Z,5431.7
2023-04-30T08:51:54.059Z,5431.7
2023-04-30T08:53:53.813Z,5166.8
2023-04-30T08:55:57.366Z,4914.8
2023-04-30T08:57:57.329Z,4675.1
2023-04-30T08:59:54.464Z,4914.8
2023-04-30T09:01:54.101Z,5166.8
2023-04-30T09:03:57.432Z,5431.7
2023-04-30T09:05:57.022Z,5710.1
2023-04-30T09:08:03.451Z,5710.1
2023-04-30T09:09:53.909Z,5431.7
2023-04-30T09:12:00.800Z,5166.8
2023-04-30T09:13:57.457Z,5166.8
2023-04-30T09:15:53.808Z,5166.8
2023-04-30T09:17:54.426Z,5431.7
2023-04-30T09:19:57.767Z,5710.1
2023-04-30T09:21:54.279Z,5710.1
2023-04-30T09:23:54.069Z,6002.9
2023-04-30T09:25:56.952Z,6310.7
2023-04-30T09:27:53.734Z,6634.2
2023-04-30T09:29:54.633Z,7707.9
2023-04-30T09:31:54.373Z,8955.3
2023-04-30T09:33:54.664Z,12708.2
2023-04-30T09:35:53.892Z,14044.7
2023-04-30T09:37:54.111Z,14044.7
2023-04-30T09:39:54.116Z,10938
2023-04-30T09:41:53.869Z,10404.6
2023-04-30T09:43:54.417Z,10938
2023-04-30T09:45:53.993Z,12708.2
2023-04-30T09:47:57.701Z,9897.1
2023-04-30T09:49:54.018Z,12088.4
2023-04-30T09:51:57.558Z,11498.8
2023-04-30T09:53:54.288Z,10938
2023-04-30T09:55:54.276Z,12088.4
2023-04-30T09:57:54.303Z,12708.2
2023-04-30T09:59:54.254Z,14044.7
2023-04-30T10:01:53.780Z,11498.8
2023-04-30T10:03:57.541Z,9414.4
2023-04-30T10:05:57.521Z,8518.5
2023-04-30T10:07:57.450Z,8103.1
2023-04-30T10:09:53.828Z,8518.5
2023-04-30T10:11:53.785Z,8103.1
2023-04-30T10:13:53.877Z,8518.5
2023-04-30T10:15:57.504Z,9414.4
2023-04-30T10:17:53.875Z,10404.6
2023-04-30T10:19:57.540Z,10938
2023-04-30T10:21:53.845Z,10938
2023-04-30T10:23:54.436Z,11498.8
2023-04-30T10:25:53.844Z,10404.6
2023-04-30T10:27:53.797Z,10404.6
2023-04-30T10:29:54.087Z,10404.6
2023-04-30T10:31:54.372Z,10938
2023-04-30T10:35:54.320Z,12708.2
2023-04-30T10:37:57.479Z,12088.4
2023-04-30T10:39:54.116Z,12708.2
2023-04-30T10:41:53.926Z,12088.4
2023-04-30T10:43:53.833Z,12708.2
2023-04-30T10:45:54.377Z,12708.2
2023-04-30T10:47:53.909Z,12088.4
2023-04-30T10:49:54.243Z,11498.8
2023-04-30T10:51:53.907Z,10938
2023-04-30T10:53:53.767Z,9897.1
2023-04-30T10:55:53.799Z,8955.3
2023-04-30T10:57:54.328Z,8103.1
2023-04-30T10:59:54.152Z,8518.5
2023-04-30T11:01:53.929Z,8518.5
2023-04-30T11:03:57.601Z,8955.3
2023-04-30T11:05:57.602Z,8955.3
2023-04-30T11:07:53.915Z,8955.3
2023-04-30T11:09:57.626Z,8955.3
2023-04-30T11:11:53.896Z,8518.5
2023-04-30T11:13:54.045Z,8518.5
2023-04-30T11:15:53.929Z,7707.9
2023-04-30T11:17:53.928Z,6974.4
2023-04-30T11:20:00.796Z,6974.4
2023-04-30T11:21:53.885Z,6974.4
2023-04-30T11:23:57.471Z,7332
2023-04-30T11:25:53.830Z,7707.9
2023-04-30T11:27:53.793Z,8103.1
2023-04-30T11:29:54.204Z,8103.1
2023-04-30T11:31:53.952Z,8103.1
2023-04-30T11:33:54.007Z,8103.1
2023-04-30T11:35:53.864Z,8518.5
2023-04-30T11:37:57.489Z,8955.3
2023-04-30T11:39:54.498Z,9897.1
2023-04-30T11:41:54.313Z,10938
2023-04-30T11:43:57.090Z,10938
2023-04-30T11:46:00.673Z,11498.8
2023-04-30T11:47:53.873Z,10938
2023-04-30T11:49:54.173Z,10404.6
2023-04-30T11:53:53.802Z,8518.5
2023-04-30T11:55:53.849Z,8518.5
2023-04-30T11:57:53.853Z,8103.1
2023-04-30T12:00:00.194Z,7707.9
2023-04-30T12:01:53.850Z,7332
2023-04-30T12:03:53.950Z,7332
2023-04-30T12:05:54.403Z,8518.5
2023-04-30T12:07:53.785Z,9897.1
2023-04-30T12:09:54.438Z,10404.6
2023-04-30T12:13:53.870Z,8518.5
2023-04-30T12:15:53.724Z,8103.1
2023-04-30T12:17:54.250Z,7332
2023-04-30T12:19:57.466Z,7332
2023-04-30T12:21:54.240Z,8103.1
2023-04-30T12:23:53.917Z,9897.1
2023-04-30T12:25:57.544Z,10938
2023-04-30T12:28:00.658Z,12708.2
2023-04-30T12:29:54.355Z,12088.4
2023-04-30T12:31:53.701Z,12708.2
2023-04-30T12:33:54.275Z,9897.1
2023-04-30T12:35:54.333Z,8955.3
2023-04-30T12:37:54.308Z,8955.3
2023-04-30T12:41:57.404Z,8103.1
2023-04-30T12:43:53.790Z,7707.9
2023-04-30T12:45:54.067Z,8103.1
2023-04-30T12:48:00.920Z,9897.1
2023-04-30T12:49:54.220Z,10938
2023-04-30T12:51:53.761Z,10938
2023-04-30T12:54:00.643Z,10938
2023-04-30T12:55:54.281Z,10938
2023-04-30T12:57:54.606Z,10404.6
2023-04-30T12:59:54.339Z,9897.1
2023-04-30T13:02:00.214Z,9897.1
2023-04-30T13:03:54.208Z,10938
2023-04-30T13:05:54.516Z,12708.2
2023-04-30T13:07:53.838Z,12708.2
2023-04-30T13:09:57.157Z,12708.2
2023-04-30T13:11:54.253Z,10404.6
2023-04-30T13:13:57.039Z,8103.1
2023-04-30T13:15:53.858Z,7332
2023-04-30T13:17:54.301Z,7707.9
2023-04-30T13:19:54.033Z,8518.5
2023-04-30T13:21:54.343Z,11498.8
2023-04-30T13:24:00.717Z,12708.2
2023-04-30T13:25:54.174Z,9897.1
2023-04-30T13:27:54.255Z,9414.4
2023-04-30T13:29:54.068Z,10404.6
2023-04-30T13:31:54.167Z,8518.5
2023-04-30T13:33:53.892Z,6634.2
2023-04-30T13:35:57.003Z,6002.9
2023-04-30T13:37:53.836Z,5710.1
2023-04-30T13:39:54.034Z,5710.1
2023-04-30T13:41:54.215Z,6310.7
2023-04-30T13:43:53.843Z,6974.4
2023-04-30T13:45:57.420Z,7707.9
2023-04-30T13:47:53.949Z,8103.1
2023-04-30T13:49:54.041Z,10404.6
2023-04-30T13:51:53.970Z,10404.6
2023-04-30T13:53:53.909Z,10404.6
2023-04-30T13:55:54.020Z,10938
2023-04-30T13:57:54.235Z,9414.4
2023-04-30T13:59:53.967Z,9897.1
2023-04-30T14:02:00.650Z,9897.1
2023-04-30T14:03:53.838Z,8955.3
2023-04-30T14:05:54.276Z,7707.9
2023-04-30T14:07:54.370Z,8955.3
2023-04-30T14:09:53.975Z,8955.3
2023-04-30T14:11:53.766Z,9897.1
2023-04-30T14:13:53.942Z,7707.9
2023-04-30T14:16:00.779Z,7332
2023-04-30T14:17:53.814Z,6974.4
2023-04-30T14:19:54.097Z,6974.4
2023-04-30T14:21:53.804Z,7332
2023-04-30T14:23:57.453Z,8103.1
2023-04-30T14:25:54.320Z,8518.5
2023-04-30T14:27:54.298Z,8955.3
2023-04-30T14:29:57.650Z,8518.5
2023-04-30T14:31:53.875Z,7707.9
2023-04-30T14:33:53.785Z,7332
2023-04-30T14:38:00.715Z,7707.9
2023-04-30T14:39:54.150Z,7707.9
2023-04-30T14:41:53.918Z,7707.9
2023-04-30T14:43:53.830Z,9414.4
2023-04-30T14:45:54.349Z,9414.4
2023-04-30T14:47:53.811Z,9414.4
2023-04-30T14:49:54.538Z,8955.3
2023-04-30T14:51:54.261Z,8955.3
2023-04-30T14:54:00.724Z,8518.5
2023-04-30T14:55:57.467Z,6634.2
2023-04-30T14:57:54.239Z,6634.2
2023-04-30T14:59:54.057Z,6974.4
2023-04-30T15:01:54.331Z,8103.1
2023-04-30T15:03:57.493Z,7707.9
2023-04-30T15:05:53.872Z,7332
2023-04-30T15:07:54.173Z,7707.9
2023-04-30T15:09:54.081Z,7332
2023-04-30T15:11:54.278Z,6974.4
2023-04-30T15:13:54.857Z,6974.4
2023-04-30T15:15:53.910Z,6974.4
2023-04-30T15:18:00.625Z,6974.4
2023-04-30T15:19:54.069Z,7332
2023-04-30T15:21:54.240Z,6002.9
2023-04-30T15:23:53.860Z,5710.1
2023-04-30T15:25:54.354Z,4914.8
2023-04-30T15:27:54.311Z,4675.1
2023-04-30T15:29:54.421Z,4675.1
2023-04-30T15:31:54.006Z,5431.7
2023-04-30T15:33:54.569Z,6002.9
2023-04-30T15:35:53.849Z,6634.2
2023-04-30T15:37:53.838Z,6974.4
2023-04-30T15:39:54.537Z,6310.7
2023-04-30T15:42:00.684Z,5710.1
2023-04-30T15:43:54.505Z,4230.2
2023-04-30T15:45:57.529Z,5710.1
2023-04-30T15:47:54.392Z,5431.7
2023-04-30T15:49:54.446Z,4914.8
2023-04-30T15:51:57.431Z,4914.8
2023-04-30T15:53:57.431Z,4675.1
2023-04-30T15:55:54.420Z,4675.1
2023-04-30T15:57:53.831Z,4675.1
2023-04-30T15:59:54.064Z,4914.8
2023-04-30T16:01:57.512Z,4447.1
2023-04-30T16:03:54.062Z,4230.2
2023-04-30T16:05:54.384Z,4230.2
2023-04-30T16:07:57.424Z,4023.9
2023-04-30T16:09:54.050Z,4023.9
2023-04-30T16:11:54.968Z,3827.6
2023-04-30T16:13:54.334Z,3827.6
2023-04-30T16:15:53.960Z,3641
2023-04-30T16:17:57.516Z,3641
2023-04-30T16:19:57.739Z,3463.4
2023-04-30T16:21:53.873Z,3463.4
2023-04-30T16:23:57.483Z,3294.5
2023-04-30T16:25:53.995Z,3133.8
2023-04-30T16:27:57.442Z,3133.8
2023-04-30T16:29:57.772Z,3133.8
2023-04-30T16:31:53.881Z,3133.8
2023-04-30T16:33:57.463Z,3294.5
2023-04-30T16:35:54.411Z,3294.5
2023-04-30T16:37:57.668Z,3133.8
2023-04-30T16:39:53.929Z,3133.8
2023-04-30T16:41:53.873Z,3294.5
2023-04-30T16:44:00.763Z,3294.5
2023-04-30T16:45:53.841Z,3294.5
2023-04-30T16:47:54.327Z,3294.5
2023-04-30T16:49:54.572Z,3294.5
2023-04-30T16:51:52.561Z,3294.5
2023-04-30T16:53:53.927Z,3294.5
2023-04-30T16:56:00.974Z,3133.8
2023-04-30T16:57:53.947Z,3133.8
2023-04-30T16:59:54.697Z,2981
2023-04-30T17:01:54.415Z,2835.6
2023-04-30T17:03:57.669Z,2835.6
2023-04-30T17:05:53.860Z,2697.3
2023-04-30T17:07:53.942Z,2697.3
2023-04-30T17:09:54.056Z,2565.7
2023-04-30T17:12:00.694Z,2440.6
2023-04-30T17:13:54.305Z,2321.6
2023-04-30T17:15:58.849Z,2208.3
2023-04-30T17:17:54.863Z,2100.6
2023-04-30T17:19:53.992Z,1998.2
2023-04-30T17:21:53.885Z,1900.7
2023-04-30T17:23:54.388Z,1808
2023-04-30T17:25:57.138Z,1636
2023-04-30T17:27:54.270Z,1556.2
2023-04-30T17:29:54.718Z,1480.3
2023-04-30T17:31:54.366Z,1408.1
2023-04-30T17:33:54.358Z,1274.1
2023-04-30T17:37:54.360Z,1152.9
2023-04-30T17:39:54.425Z,1043.1
2023-04-30T17:41:53.962Z,992.3
2023-04-30T17:43:54.569Z,943.9
2023-04-30T17:45:57.289Z,854.1
2023-04-30T17:47:54.639Z,812.4
2023-04-30T17:49:54.031Z,699.2
2023-04-30T17:51:54.366Z,632.7
2023-04-30T17:53:53.888Z,572.5
2023-04-30T17:56:00.871Z,544.6
2023-04-30T17:57:53.871Z,492.7
2023-04-30T17:59:54.303Z,445.9
2023-04-30T18:01:53.921Z,403.4
2023-04-30T18:03:54.430Z,365
2023-04-30T18:05:53.952Z,314.2
2023-04-30T18:07:53.885Z,284.3
2023-04-30T18:09:57.733Z,244.7
2023-04-30T18:11:59.476Z,221.4
2023-04-30T18:13:54.429Z,190.6
2023-04-30T18:15:53.893Z,164
2023-04-30T18:17:54.416Z,141.2
2023-04-30T18:19:54.623Z,121.5
2023-04-30T18:21:57.548Z,99.5
2023-04-30T18:23:53.847Z,85.6
2023-04-30T18:26:00.654Z,73.7
2023-04-30T18:27:53.934Z,63.4
2023-04-30T18:29:54.500Z,51.9
2023-04-30T18:31:53.890Z,44.7
2023-04-30T18:33:53.871Z,36.6
2023-04-30T18:35:53.949Z,30
2023-04-30T18:37:54.287Z,23.3
2023-04-30T18:39:54.104Z,18.2
2023-04-30T18:41:53.849Z,14.2
2023-04-30T18:43:57.473Z,10
2023-04-30T18:45:53.825Z,7.4
2023-04-30T18:47:54.325Z,5.2
2023-04-30T18:49:54.574Z,3.7
2023-04-30T18:51:54.307Z,2.6
2023-04-30T18:53:54.297Z,1.9
2023-04-30T18:55:53.829Z,1.3
2023-04-30T18:57:57.467Z,0.9
2023-04-30T18:59:57.379Z,0.7
2023-04-30T19:01:53.877Z,0.5
2023-04-30T19:03:53.896Z,0.3
2023-04-30T19:05:53.970Z,0.3
2023-04-30T19:07:54.539Z,0.2
2023-04-30T19:09:54.063Z,0.2
2023-04-30T19:11:56.946Z,0.1
2023-04-30T19:13:53.808Z,0.1
2023-04-30T19:15:53.830Z,0
2023-04-30T19:17:53.839Z,0
2023-04-30T19:19:54.952Z,0
2023-04-30T19:21:53.958Z,0
2023-04-30T19:23:53.931Z,0
2023-04-30T19:25:54.417Z,0
2023-04-30T19:27:57.016Z,0
2023-04-30T19:29:54.349Z,0
2023-04-30T19:31:57.536Z,0
2023-04-30T19:33:57.555Z,1
2023-04-30T19:35:53.829Z,1
2023-04-30T19:37:53.791Z,1
2023-04-30T19:41:57.546Z,1
2023-04-30T19:43:57.510Z,1
2023-04-30T19:45:57.600Z,1
2023-04-30T19:47:53.960Z,1
2023-04-30T19:49:54.275Z,1
2023-04-30T19:51:53.817Z,1
2023-04-30T19:53:54.249Z,1
2023-04-30T19:55:57.680Z,1
2023-04-30T19:57:57.495Z,1
2023-04-30T19:59:54.090Z,1
2023-04-30T20:01:54.350Z,1
2023-04-30T20:03:57.082Z,1
2023-04-30T20:05:54.349Z,1
2023-04-30T20:07:53.959Z,1
2023-04-30T20:10:00.205Z,1
2023-04-30T20:11:53.926Z,1
2023-04-30T20:13:54.031Z,1
2023-04-30T20:15:57.649Z,1
2023-04-30T20:17:58.593Z,1
2023-04-30T20:19:54.076Z,1
2023-04-30T20:21:54.347Z,1
2023-04-30T20:23:53.813Z,1
2023-04-30T20:25:54.257Z,1
2023-04-30T20:27:53.850Z,1
2023-04-30T20:29:54.213Z,1
2023-04-30T20:31:54.315Z,1
2023-04-30T20:33:53.792Z,1
2023-04-30T20:35:53.914Z,1
2023-04-30T20:37:57.660Z,1
2023-04-30T20:41:53.852Z,1
2023-04-30T20:43:54.300Z,1
2023-04-30T20:45:57.445Z,1
2023-04-30T20:47:57.518Z,1
2023-04-30T20:49:54.189Z,1
2023-04-30T20:51:53.836Z,1
2023-04-30T20:53:54.350Z,1
2023-04-30T20:55:53.889Z,1
2023-04-30T20:57:53.949Z,1
2023-04-30T20:59:54.532Z,1
2023-04-30T21:02:00.766Z,1
2023-04-30T21:03:53.914Z,1
2023-04-30T21:06:00.742Z,1
2023-04-30T21:07:57.014Z,1
2023-04-30T21:09:53.902Z,1
2023-04-30T21:11:53.905Z,1
2023-04-30T21:13:54.261Z,1
2023-04-30T21:15:53.989Z,1
2023-04-30T21:17:57.574Z,1
2023-04-30T21:19:57.359Z,1
2023-04-30T21:21:57.079Z,1
2023-04-30T21:23:53.825Z,1
2023-04-30T21:25:53.925Z,1
2023-04-30T21:27:54.388Z,1
2023-04-30T21:29:57.738Z,1
2023-04-30T21:31:57.478Z,1
2023-04-30T21:33:57.547Z,1
2023-04-30T21:35:54.348Z,1
2023-04-30T21:37:54.296Z,1
2023-04-30T21:39:57.800Z,1
2023-04-30T21:42:00.979Z,1
2023-04-30T21:43:53.907Z,1
2023-04-30T21:45:57.075Z,1
2023-04-30T21:47:53.963Z,1
2023-04-30T21:51:53.882Z,1
2023-04-30T21:53:57.552Z,1
2023-04-30T21:55:57.570Z,1
2023-04-30T21:57:54.349Z,1
2023-04-30T21:59:54.353Z,1
2023-04-30T22:01:53.910Z,1
2023-04-30T22:03:53.935Z,1
2023-04-30T22:05:53.955Z,1
2023-04-30T22:07:54.415Z,1
2023-04-30T22:09:54.697Z,1
2023-04-30T22:11:53.816Z,1
2023-04-30T22:14:00.810Z,1
2023-04-30T22:15:54.329Z,1
2023-04-30T22:17:57.573Z,1
2023-04-30T22:19:57.744Z,1
2023-04-30T22:21:53.933Z,1
2023-04-30T22:23:57.546Z,1
2023-04-30T22:25:57.432Z,1
2023-04-30T22:27:53.857Z,1
2023-04-30T22:29:54.876Z,1
2023-04-30T22:31:54.285Z,1
2023-04-30T22:34:00.677Z,1
2023-04-30T22:35:54.148Z,1
2023-04-30T22:37:54.433Z,1
2023-04-30T22:39:54.489Z,1
2023-04-30T22:41:57.025Z,1
2023-04-30T22:43:53.965Z,1
2023-04-30T22:45:53.844Z,1
2023-04-30T22:47:53.960Z,1
2023-04-30T22:49:54.588Z,1
2023-04-30T22:51:53.835Z,1
2023-04-30T22:53:54.241Z,1
2023-04-30T22:56:00.807Z,1
2023-04-30T22:57:53.983Z,1
2023-04-30T22:59:54.609Z,1
2023-04-30T23:01:57.567Z,1
2023-04-30T23:04:00.701Z,1
2023-04-30T23:05:57.600Z,1
2023-04-30T23:07:57.482Z,1
2023-04-30T23:09:57.692Z,1
2023-04-30T23:11:57.016Z,1
2023-04-30T23:13:54.054Z,1
2023-04-30T23:15:57.519Z,1
2023-04-30T23:17:53.903Z,1
2023-04-30T23:19:57.613Z,1
2023-04-30T23:23:53.923Z,1
2023-04-30T23:25:54.347Z,1
2023-04-30T23:27:57.507Z,1
2023-04-30T23:29:54.012Z,1
2023-04-30T23:31:53.994Z,1
2023-04-30T23:33:54.304Z,1
2023-04-30T23:35:53.859Z,1
2023-04-30T23:37:54.045Z,1
2023-04-30T23:39:54.734Z,1
2023-04-30T23:42:00.889Z,1
2023-04-30T23:43:53.885Z,1
2023-04-30T23:45:57.027Z,1
2023-04-30T23:47:57.565Z,1
2023-04-30T23:49:53.985Z,1
2023-04-30T23:51:57.534Z,1
2023-04-30T23:53:53.953Z,1
2023-04-30T23:56:00.793Z,1
2023-04-30T23:57:53.906Z,1
